createdAt,value
2022-12-13T00:01:28.527Z,-9.51
2022-12-13T00:03:56.448Z,-9.49
2022-12-13T00:06:24.250Z,-9.70
2022-12-13T00:08:50.777Z,-9.88
2022-12-13T00:11:17.848Z,-9.92
2022-12-13T00:13:46.641Z,-9.96
2022-12-13T00:16:15.903Z,-9.89
2022-12-13T00:18:42.985Z,-9.79
2022-12-13T00:21:13.798Z,-9.79
2022-12-13T00:23:40.294Z,-9.71
2022-12-13T00:26:12.275Z,-9.73
2022-12-13T00:28:39.896Z,-9.85
2022-12-13T00:31:35.250Z,-9.98
2022-12-13T00:33:54.192Z,-10.10
2022-12-13T00:36:20.662Z,-10.05
2022-12-13T00:38:47.120Z,-9.99
2022-12-13T00:41:16.511Z,-10.00
2022-12-13T00:43:43.815Z,-10.06
2022-12-13T00:46:15.128Z,-10.02
2022-12-13T00:48:44.079Z,-9.93
2022-12-13T00:51:12.019Z,-9.98
2022-12-13T00:53:38.512Z,-10.00
2022-12-13T00:56:10.510Z,-10.01
2022-12-13T00:58:36.984Z,-9.68
2022-12-13T01:01:08.732Z,-9.80
2022-12-13T01:03:35.815Z,-9.85
2022-12-13T01:06:16.398Z,-9.97
2022-12-13T01:08:44.456Z,-10.02
2022-12-13T01:11:12.185Z,-9.85
2022-12-13T01:13:39.085Z,-9.98
2022-12-13T01:16:08.011Z,-10.08
2022-12-13T01:18:35.260Z,-10.04
2022-12-13T01:21:07.811Z,-10.19
2022-12-13T01:23:34.557Z,-10.22
2022-12-13T01:26:06.250Z,-10.12
2022-12-13T01:28:33.450Z,-10.12
2022-12-13T01:31:07.033Z,-10.13
2022-12-13T01:33:33.903Z,-10.36
2022-12-13T01:36:02.348Z,-10.26
2022-12-13T01:38:29.258Z,-10.12
2022-12-13T01:40:59.195Z,-10.30
2022-12-13T01:43:53.232Z,-10.37
2022-12-13T01:46:19.971Z,-10.31
2022-12-13T01:49:20.200Z,-10.31
2022-12-13T01:52:05.697Z,-10.37
2022-12-13T01:54:36.854Z,-10.26
2022-12-13T01:57:07.175Z,-10.33
2022-12-13T01:59:36.018Z,-10.15
2022-12-13T02:02:02.968Z,-10.18
2022-12-13T02:05:07.187Z,-10.11
2022-12-13T02:07:36.589Z,-10.28
2022-12-13T02:10:06.183Z,-10.34
2022-12-13T02:12:34.600Z,-9.50
2022-12-13T02:15:04.915Z,-9.66
2022-12-13T02:18:02.152Z,-9.89
2022-12-13T02:20:37.668Z,-10.39
2022-12-13T02:23:37.552Z,-10.33
2022-12-13T02:26:28.653Z,-10.42
2022-12-13T02:29:01.053Z,-10.48
2022-12-13T02:31:40.914Z,-10.58
2022-12-13T02:34:13.673Z,-10.54
2022-12-13T02:36:49.737Z,-10.62
2022-12-13T02:39:30.109Z,-10.56
2022-12-13T02:42:05.836Z,-10.49
2022-12-13T02:44:43.162Z,-10.27
2022-12-13T02:47:23.397Z,-10.38
2022-12-13T02:49:52.609Z,-10.43
2022-12-13T02:52:22.943Z,-10.53
2022-12-13T02:54:49.522Z,-10.44
2022-12-13T02:57:38.417Z,-10.53
2022-12-13T03:00:14.023Z,-10.65
2022-12-13T03:03:18.778Z,-10.56
2022-12-13T03:06:33.347Z,-10.56
2022-12-13T03:09:25.833Z,-10.68
2022-12-13T03:12:29.870Z,-10.55
2022-12-13T03:15:19.458Z,-10.46
2022-12-13T03:17:53.982Z,-10.58
2022-12-13T03:20:24.968Z,-10.66
2022-12-13T03:22:52.934Z,-10.81
2022-12-13T03:25:31.534Z,-10.86
2022-12-13T03:28:01.248Z,-10.92
2022-12-13T03:30:28.857Z,-10.78
2022-12-13T03:32:55.353Z,-10.77
2022-12-13T03:35:22.860Z,-10.75
2022-12-13T03:37:50.108Z,-10.77
2022-12-13T03:40:18.388Z,-10.86
2022-12-13T03:42:45.107Z,-10.99
2022-12-13T03:45:12.608Z,-11.02
2022-12-13T03:47:39.320Z,-11.01
2022-12-13T03:50:25.777Z,-11.18
2022-12-13T03:52:59.534Z,-11.12
2022-12-13T03:55:26.506Z,-10.92
2022-12-13T03:57:52.979Z,-10.74
2022-12-13T04:00:19.900Z,-10.73
2022-12-13T04:02:46.493Z,-10.97
2022-12-13T04:05:13.243Z,-11.08
2022-12-13T04:07:40.279Z,-11.04
2022-12-13T04:10:25.333Z,-10.95
2022-12-13T04:13:12.768Z,-11.08
2022-12-13T04:15:39.980Z,-11.21
2022-12-13T04:18:06.849Z,-11.16
2022-12-13T04:20:33.324Z,-11.04
2022-12-13T04:22:59.854Z,-10.97
2022-12-13T04:25:26.786Z,-10.91
2022-12-13T04:27:53.284Z,-11.19
2022-12-13T04:30:19.793Z,-11.24
2022-12-13T04:32:46.335Z,-11.24
2022-12-13T04:35:13.007Z,-11.27
2022-12-13T04:37:43.489Z,-11.14
2022-12-13T04:40:11.092Z,-11.15
2022-12-13T04:42:37.873Z,-11.10
2022-12-13T04:45:04.818Z,-11.10
2022-12-13T04:47:31.276Z,-11.02
2022-12-13T04:49:57.997Z,-11.04
2022-12-13T04:52:24.551Z,-11.01
2022-12-13T04:54:55.466Z,-10.89
2022-12-13T04:57:22.908Z,-11.02
2022-12-13T04:59:49.611Z,-10.96
2022-12-13T05:02:24.067Z,-10.96
2022-12-13T05:04:53.621Z,-10.95
2022-12-13T05:07:23.126Z,-10.99
2022-12-13T05:09:49.655Z,-11.02
2022-12-13T05:12:22.553Z,-11.10
2022-12-13T05:14:50.909Z,-11.04
2022-12-13T05:17:17.399Z,-11.06
2022-12-13T05:19:43.882Z,-11.16
2022-12-13T05:22:20.293Z,-11.21
2022-12-13T05:24:48.126Z,-11.23
2022-12-13T05:27:25.293Z,-11.02
2022-12-13T05:30:03.326Z,-11.12
2022-12-13T05:32:43.613Z,-11.06
2022-12-13T05:35:22.564Z,-11.04
2022-12-13T05:37:54.367Z,-11.06
2022-12-13T05:40:25.607Z,-11.06
2022-12-13T05:42:52.396Z,-11.02
2022-12-13T05:45:28.508Z,-11.19
2022-12-13T05:47:55.015Z,-11.23
2022-12-13T05:50:21.540Z,-11.23
2022-12-13T05:52:49.715Z,-11.14
2022-12-13T05:55:16.593Z,-11.19
2022-12-13T05:57:50.893Z,-11.24
2022-12-13T06:00:28.285Z,-11.10
2022-12-13T06:03:01.221Z,-11.15
2022-12-13T06:05:29.229Z,-11.00
2022-12-13T06:07:57.635Z,-11.08
2022-12-13T06:10:24.655Z,-11.19
2022-12-13T06:12:51.144Z,-11.30
2022-12-13T06:15:22.366Z,-11.18
2022-12-13T06:17:49.863Z,-11.30
2022-12-13T06:20:23.639Z,-10.95
2022-12-13T06:22:52.202Z,-11.09
2022-12-13T06:25:30.726Z,-11.11
2022-12-13T06:28:01.108Z,-11.17
2022-12-13T06:30:29.252Z,-11.05
2022-12-13T06:32:56.245Z,-11.29
2022-12-13T06:35:28.940Z,-11.29
2022-12-13T06:38:01.736Z,-11.31
2022-12-13T06:40:31.772Z,-11.23
2022-12-13T06:42:58.258Z,-11.17
2022-12-13T06:45:25.503Z,-11.35
2022-12-13T06:47:52.140Z,-11.26
2022-12-13T06:50:18.880Z,-11.24
2022-12-13T06:52:48.248Z,-11.26
2022-12-13T06:55:14.907Z,-11.27
2022-12-13T06:57:50.187Z,-11.44
2022-12-13T07:00:22.364Z,-11.51
2022-12-13T07:02:56.672Z,-11.44
2022-12-13T07:05:23.481Z,-11.33
2022-12-13T07:07:50.071Z,-11.21
2022-12-13T07:10:22.375Z,-11.06
2022-12-13T07:12:49.710Z,-11.14
2022-12-13T07:15:16.411Z,-11.23
2022-12-13T07:17:42.965Z,-11.00
2022-12-13T07:20:10.562Z,-11.08
2022-12-13T07:22:44.912Z,-11.07
2022-12-13T07:25:28.156Z,-11.23
2022-12-13T07:28:05.905Z,-11.21
2022-12-13T07:30:41.643Z,-11.15
2022-12-13T07:33:09.256Z,-11.01
2022-12-13T07:35:37.111Z,-11.04
2022-12-13T07:38:06.643Z,-10.94
2022-12-13T07:40:35.033Z,-10.82
2022-12-13T07:43:01.572Z,-10.68
2022-12-13T07:45:28.608Z,-10.66
2022-12-13T07:47:55.156Z,-10.56
2022-12-13T07:50:24.056Z,-10.58
2022-12-13T07:52:53.386Z,-10.65
2022-12-13T07:55:23.336Z,-10.65
2022-12-13T07:58:05.108Z,-10.46
2022-12-13T08:00:32.212Z,-10.31
2022-12-13T08:03:00.825Z,-10.08
2022-12-13T08:05:28.241Z,-10.06
2022-12-13T08:07:54.995Z,-10.18
2022-12-13T08:10:21.844Z,-10.19
2022-12-13T08:12:50.035Z,-10.18
2022-12-13T08:15:17.452Z,-10.11
2022-12-13T08:17:44.003Z,-10.04
2022-12-13T08:20:10.796Z,-9.93
2022-12-13T08:22:37.325Z,-9.90
2022-12-13T08:25:04.151Z,-9.86
2022-12-13T08:27:30.773Z,-9.87
2022-12-13T08:29:57.250Z,-9.55
2022-12-13T08:32:24.452Z,-9.42
2022-12-13T08:34:51.140Z,-9.37
2022-12-13T08:37:17.707Z,-9.56
2022-12-13T08:39:47.245Z,-9.20
2022-12-13T08:42:19.523Z,-8.87
2022-12-13T08:44:51.381Z,-8.87
2022-12-13T08:47:25.879Z,-9.07
2022-12-13T08:50:03.948Z,-9.04
2022-12-13T08:52:39.453Z,-8.99
2022-12-13T08:55:12.159Z,-8.94
2022-12-13T08:57:40.554Z,-8.76
2022-12-13T09:00:09.045Z,-8.56
2022-12-13T09:02:37.838Z,-8.41
2022-12-13T09:05:07.151Z,-8.24
2022-12-13T09:07:35.815Z,-8.07
2022-12-13T09:10:07.047Z,-7.73
2022-12-13T09:12:49.790Z,-7.59
2022-12-13T09:15:22.418Z,-7.45
2022-12-13T09:17:52.590Z,-7.41
2022-12-13T09:20:28.644Z,-7.43
2022-12-13T09:23:01.794Z,-7.27
2022-12-13T09:25:37.001Z,-7.32
2022-12-13T09:28:08.478Z,-7.10
2022-12-13T09:30:36.634Z,-7.12
2022-12-13T09:33:28.052Z,-7.12
2022-12-13T09:35:50.528Z,-6.96
2022-12-13T09:38:17.012Z,-6.79
2022-12-13T09:40:47.608Z,-6.66
2022-12-13T09:43:31.821Z,-6.67
2022-12-13T09:46:13.282Z,-6.81
2022-12-13T09:48:53.456Z,-6.82
2022-12-13T09:51:43.046Z,-6.82
2022-12-13T09:54:18.677Z,-6.75
2022-12-13T09:56:50.543Z,-6.57
2022-12-13T09:59:36.520Z,-6.49
2022-12-13T10:02:16.032Z,-6.45
2022-12-13T10:04:43.289Z,-6.46
2022-12-13T10:07:21.524Z,-6.38
2022-12-13T10:09:49.687Z,-6.44
2022-12-13T10:12:17.143Z,-6.32
2022-12-13T10:14:52.157Z,-6.40
2022-12-13T10:17:23.067Z,-6.36
2022-12-13T10:19:52.867Z,-6.33
2022-12-13T10:22:22.994Z,-6.29
2022-12-13T10:25:05.177Z,-6.22
2022-12-13T10:27:45.268Z,-6.23
2022-12-13T10:30:16.008Z,-6.26
2022-12-13T10:33:04.881Z,-6.22
2022-12-13T10:35:34.520Z,-6.02
2022-12-13T10:38:31.513Z,-5.84
2022-12-13T10:40:58.849Z,-5.80
2022-12-13T10:43:30.370Z,-5.83
2022-12-13T10:45:58.605Z,-5.84
2022-12-13T10:48:38.414Z,-5.82
2022-12-13T10:51:13.816Z,-5.85
2022-12-13T10:53:49.589Z,-5.69
2022-12-13T10:56:22.941Z,-5.49
2022-12-13T10:59:13.393Z,-5.36
2022-12-13T11:01:43.565Z,-5.42
2022-12-13T11:04:32.577Z,-5.24
2022-12-13T11:07:01.974Z,-5.27
2022-12-13T11:09:38.886Z,-5.41
2022-12-13T11:12:15.491Z,-5.37
2022-12-13T11:15:06.231Z,-5.36
2022-12-13T11:17:45.563Z,-5.38
2022-12-13T11:20:24.117Z,-5.31
2022-12-13T11:23:04.684Z,-5.22
2022-12-13T11:25:39.154Z,-5.11
2022-12-13T11:28:43.084Z,-5.06
2022-12-13T11:31:10.211Z,-5.20
2022-12-13T11:33:47.626Z,-5.10
2022-12-13T11:36:56.724Z,-5.06
2022-12-13T11:39:37.058Z,-4.89
2022-12-13T11:42:25.977Z,-4.80
2022-12-13T11:45:01.569Z,-4.82
2022-12-13T11:47:43.075Z,-4.88
2022-12-13T11:50:33.218Z,-4.76
2022-12-13T11:53:19.252Z,-4.79
2022-12-13T11:56:08.025Z,-4.60
2022-12-13T11:59:03.174Z,-4.83
2022-12-13T12:01:41.553Z,-4.84
2022-12-13T12:04:26.156Z,-4.56
2022-12-13T12:07:17.945Z,-4.58
2022-12-13T12:09:55.720Z,-4.70
2022-12-13T12:12:35.771Z,-4.60
2022-12-13T12:15:16.201Z,-4.48
2022-12-13T12:17:43.722Z,-4.44
2022-12-13T12:20:23.546Z,-4.48
2022-12-13T12:23:14.371Z,-4.51
2022-12-13T12:25:53.397Z,-4.48
2022-12-13T12:28:34.789Z,-4.53
2022-12-13T12:31:21.038Z,-4.59
2022-12-13T12:33:56.580Z,-4.42
2022-12-13T12:36:41.804Z,-4.36
2022-12-13T12:39:26.896Z,-4.56
2022-12-13T12:42:15.285Z,-4.51
2022-12-13T12:44:50.955Z,-4.44
2022-12-13T12:50:43.372Z,-4.49
2022-12-13T12:53:21.831Z,-4.45
2022-12-13T12:55:49.252Z,-4.30
2022-12-13T12:58:26.796Z,-4.39
2022-12-13T13:01:43.538Z,-4.40
2022-12-13T13:04:22.092Z,-4.32
2022-12-13T13:07:04.064Z,-4.28
2022-12-13T13:09:31.650Z,-4.19
2022-12-13T13:12:02.535Z,-4.27
2022-12-13T13:14:49.019Z,-4.30
2022-12-13T13:17:24.648Z,-4.27
2022-12-13T13:20:12.240Z,-4.16
2022-12-13T13:22:43.492Z,-4.06
2022-12-13T13:25:23.656Z,-4.12
2022-12-13T13:27:53.662Z,-4.11
2022-12-13T13:30:23.984Z,-3.94
2022-12-13T13:32:55.533Z,-3.92
2022-12-13T13:35:47.989Z,-3.75
2022-12-13T13:38:17.852Z,-3.86
2022-12-13T13:40:46.190Z,-3.79
2022-12-13T13:43:14.127Z,-3.78
2022-12-13T13:45:50.039Z,-3.90
2022-12-13T13:48:25.437Z,-3.77
2022-12-13T13:51:06.839Z,-3.87
2022-12-13T13:53:59.702Z,-3.77
2022-12-13T13:56:50.578Z,-3.84
2022-12-13T13:59:45.164Z,-3.70
2022-12-13T14:02:49.498Z,-3.83
2022-12-13T14:05:35.092Z,-3.74
2022-12-13T14:08:24.168Z,-3.79
2022-12-13T14:11:02.788Z,-3.74
2022-12-13T14:13:50.573Z,-3.67
2022-12-13T14:16:51.647Z,-3.63
2022-12-13T14:19:39.457Z,-3.69
2022-12-13T14:22:14.830Z,-3.44
2022-12-13T14:24:44.375Z,-3.46
2022-12-13T14:27:36.732Z,-3.59
2022-12-13T14:30:05.221Z,-3.63
2022-12-13T14:32:52.572Z,-3.73
2022-12-13T14:35:29.601Z,-3.73
2022-12-13T14:38:05.435Z,-3.72
2022-12-13T14:40:34.773Z,-3.81
2022-12-13T14:43:02.280Z,-3.81
2022-12-13T14:45:36.593Z,-3.67
2022-12-13T14:48:14.781Z,-3.64
2022-12-13T14:50:44.529Z,-3.59
2022-12-13T14:53:25.540Z,-3.84
2022-12-13T14:56:28.765Z,-3.88
2022-12-13T14:59:11.957Z,-3.76
2022-12-13T15:01:38.857Z,-3.80
2022-12-13T15:04:29.326Z,-3.79
2022-12-13T15:07:03.307Z,-3.85
2022-12-13T15:09:31.098Z,-3.91
2022-12-13T15:12:14.957Z,-3.99
2022-12-13T15:14:48.479Z,-3.97
2022-12-13T15:17:37.775Z,-4.01
2022-12-13T15:20:39.345Z,-4.09
2022-12-13T15:23:23.602Z,-4.01
2022-12-13T15:26:29.207Z,-4.09
2022-12-13T15:29:10.336Z,-4.08
2022-12-13T15:31:38.787Z,-4.09
2022-12-13T15:34:28.342Z,-4.07
2022-12-13T15:37:03.150Z,-4.08
2022-12-13T15:39:31.195Z,-4.16
2022-12-13T15:41:58.490Z,-4.21
2022-12-13T15:44:31.544Z,-4.15
2022-12-13T15:47:05.181Z,-4.11
2022-12-13T15:49:34.617Z,-4.21
2022-12-13T15:52:26.467Z,-4.19
2022-12-13T15:55:01.941Z,-4.27
2022-12-13T15:57:31.846Z,-4.30
2022-12-13T16:00:32.313Z,-4.33
2022-12-13T16:03:09.018Z,-4.23
2022-12-13T16:05:40.340Z,-4.41
2022-12-13T16:08:18.040Z,-4.52
2022-12-13T16:10:49.964Z,-4.86
2022-12-13T16:13:29.409Z,-4.99
2022-12-13T16:16:00.344Z,-5.03
2022-12-13T16:18:45.779Z,-5.06
2022-12-13T16:21:12.460Z,-5.32
2022-12-13T16:23:38.935Z,-5.30
2022-12-13T16:26:08.990Z,-5.26
2022-12-13T16:28:36.123Z,-5.19
2022-12-13T16:31:13.913Z,-5.12
2022-12-13T16:33:40.428Z,-5.09
2022-12-13T16:36:09.516Z,-5.25
2022-12-13T16:38:36.004Z,-5.32
2022-12-13T16:41:09.265Z,-5.40
2022-12-13T16:44:06.690Z,-5.26
2022-12-13T16:47:17.115Z,-5.30
2022-12-13T16:49:28.448Z,-5.31
2022-12-13T16:51:55.930Z,-5.30
2022-12-13T16:54:24.420Z,-5.30
2022-12-13T16:56:51.787Z,-5.32
2022-12-13T16:59:22.511Z,-5.35
2022-12-13T17:01:50.390Z,-5.63
2022-12-13T17:04:21.288Z,-5.77
2022-12-13T17:06:50.171Z,-5.84
2022-12-13T17:09:18.474Z,-5.80
2022-12-13T17:11:45.376Z,-5.71
2022-12-13T17:14:11.838Z,-5.61
2022-12-13T17:16:38.369Z,-5.68
2022-12-13T17:19:05.113Z,-5.30
2022-12-13T17:21:32.030Z,-5.28
2022-12-13T17:24:01.397Z,-5.13
2022-12-13T17:26:28.960Z,-5.06
2022-12-13T17:28:55.760Z,-4.95
2022-12-13T17:31:22.373Z,-4.93
2022-12-13T17:33:48.900Z,-4.91
2022-12-13T17:36:16.223Z,-4.84
2022-12-13T17:38:45.559Z,-4.79
2022-12-13T17:41:13.512Z,-4.81
2022-12-13T17:43:40.595Z,-4.87
2022-12-13T17:46:11.255Z,-4.79
2022-12-13T17:48:41.128Z,-4.75
2022-12-13T17:51:09.949Z,-4.74
2022-12-13T17:53:38.476Z,-4.71
2022-12-13T17:56:07.944Z,-4.68
2022-12-13T17:58:35.350Z,-4.71
2022-12-13T18:01:13.159Z,-4.68
2022-12-13T18:03:39.970Z,-4.82
2022-12-13T18:06:07.141Z,-4.77
2022-12-13T18:08:35.856Z,-4.84
2022-12-13T18:11:31.332Z,-4.90
2022-12-13T18:13:49.423Z,-4.95
2022-12-13T18:16:22.146Z,-4.90
2022-12-13T18:18:55.002Z,-4.86
2022-12-13T18:21:23.023Z,-4.84
2022-12-13T18:23:55.681Z,-4.98
2022-12-13T18:26:23.940Z,-5.04
2022-12-13T18:28:50.552Z,-5.06
2022-12-13T18:31:20.461Z,-5.07
2022-12-13T18:33:48.115Z,-5.11
2022-12-13T18:36:15.233Z,-5.15
2022-12-13T18:38:42.539Z,-5.06
2022-12-13T18:41:12.378Z,-4.94
2022-12-13T18:43:38.896Z,-4.94
2022-12-13T18:46:05.854Z,-4.94
2022-12-13T18:48:32.607Z,-5.05
2022-12-13T18:51:00.633Z,-5.03
2022-12-13T18:53:28.662Z,-4.93
2022-12-13T18:56:22.082Z,-4.94
2022-12-13T18:58:49.746Z,-4.92
2022-12-13T19:01:17.037Z,-4.85
2022-12-13T19:03:45.141Z,-4.86
2022-12-13T19:06:18.305Z,-4.87
2022-12-13T19:08:48.307Z,-4.89
2022-12-13T19:11:15.062Z,-4.84
2022-12-13T19:13:41.648Z,-4.96
2022-12-13T19:16:11.272Z,-5.05
2022-12-13T19:18:37.851Z,-4.97
2022-12-13T19:21:07.969Z,-4.91
2022-12-13T19:23:35.171Z,-4.85
2022-12-13T19:26:06.134Z,-4.84
2022-12-13T19:28:32.760Z,-4.83
2022-12-13T19:31:03.398Z,-4.84
2022-12-13T19:33:29.928Z,-4.81
2022-12-13T19:35:56.394Z,-4.83
2022-12-13T19:38:22.921Z,-4.84
2022-12-13T19:40:49.506Z,-4.72
2022-12-13T19:43:16.037Z,-4.80
2022-12-13T19:45:45.571Z,-4.87
2022-12-13T19:48:12.986Z,-4.88
2022-12-13T19:50:39.999Z,-4.81
2022-12-13T19:53:07.873Z,-4.84
2022-12-13T19:55:34.939Z,-4.78
2022-12-13T19:58:01.768Z,-4.69
2022-12-13T20:00:28.365Z,-4.78
2022-12-13T20:02:55.711Z,-4.80
2022-12-13T20:05:22.296Z,-4.87
2022-12-13T20:07:48.830Z,-4.84
2022-12-13T20:10:15.301Z,-4.83
2022-12-13T20:12:41.768Z,-4.84
2022-12-13T20:15:08.888Z,-4.91
2022-12-13T20:17:36.171Z,-4.98
2022-12-13T20:20:04.072Z,-4.99
2022-12-13T20:22:31.550Z,-4.91
2022-12-13T20:24:58.600Z,-5.10
2022-12-13T20:27:25.440Z,-5.19
2022-12-13T20:29:51.971Z,-5.26
2022-12-13T20:32:20.811Z,-5.35
2022-12-13T20:34:53.063Z,-5.11
2022-12-13T20:37:23.654Z,-4.98
2022-12-13T20:39:50.878Z,-4.90
2022-12-13T20:42:17.299Z,-5.23
2022-12-13T20:44:43.773Z,-5.57
2022-12-13T20:47:10.714Z,-5.68
2022-12-13T20:49:37.301Z,-5.70
2022-12-13T20:52:04.168Z,-5.47
2022-12-13T20:54:30.695Z,-5.35
2022-12-13T20:56:57.159Z,-5.26
2022-12-13T20:59:23.656Z,-5.18
2022-12-13T21:01:50.170Z,-5.20
2022-12-13T21:04:16.944Z,-5.14
2022-12-13T21:06:43.583Z,-5.13
2022-12-13T21:09:11.357Z,-5.19
2022-12-13T21:11:46.941Z,-5.31
2022-12-13T21:14:25.627Z,-5.15
2022-12-13T21:16:57.732Z,-5.07
2022-12-13T21:19:26.282Z,-5.21
2022-12-13T21:21:54.196Z,-5.54
2022-12-13T21:24:22.573Z,-5.58
2022-12-13T21:26:49.333Z,-5.75
2022-12-13T21:29:16.237Z,-5.62
2022-12-13T21:31:49.181Z,-5.86
2022-12-13T21:34:17.071Z,-5.71
2022-12-13T21:36:46.275Z,-5.40
2022-12-13T21:39:15.724Z,-5.27
2022-12-13T21:41:43.164Z,-5.16
2022-12-13T21:44:10.951Z,-5.30
2022-12-13T21:49:23.950Z,-5.62
2022-12-13T21:51:50.516Z,-5.84
2022-12-13T21:54:17.576Z,-5.77
2022-12-13T21:57:02.449Z,-5.70
2022-12-13T21:59:29.164Z,-5.20
2022-12-13T22:02:12.162Z,-5.31
2022-12-13T22:04:47.398Z,-4.91
2022-12-13T22:07:28.423Z,-5.06
2022-12-13T22:09:57.484Z,-5.15
2022-12-13T22:12:39.185Z,-5.25
2022-12-13T22:15:08.913Z,-5.21
2022-12-13T22:17:36.384Z,-5.09
2022-12-13T22:20:11.132Z,-4.87
2022-12-13T22:22:39.333Z,-4.75
2022-12-13T22:25:06.789Z,-4.79
2022-12-13T22:27:33.691Z,-4.71
2022-12-13T22:30:02.452Z,-4.64
2022-12-13T22:32:30.720Z,-4.68
2022-12-13T22:34:57.525Z,-4.65
2022-12-13T22:37:24.713Z,-4.88
2022-12-13T22:39:51.289Z,-4.72
2022-12-13T22:42:18.633Z,-4.63
2022-12-13T22:44:45.466Z,-4.49
2022-12-13T22:47:11.995Z,-4.43
2022-12-13T22:49:38.487Z,-4.52
2022-12-13T22:52:05.294Z,-4.59
2022-12-13T22:54:31.765Z,-4.56
2022-12-13T22:56:58.203Z,-4.52
2022-12-13T22:59:24.669Z,-4.40
2022-12-13T23:01:54.372Z,-4.38
2022-12-13T23:04:23.535Z,-4.32
2022-12-13T23:06:50.162Z,-4.29
2022-12-13T23:09:16.643Z,-4.30
2022-12-13T23:12:15.410Z,-4.21
2022-12-13T23:14:41.904Z,-4.33
2022-12-13T23:17:08.440Z,-4.29
2022-12-13T23:19:49.744Z,-4.23
2022-12-13T23:22:22.330Z,-4.08
2022-12-13T23:24:49.777Z,-4.09
2022-12-13T23:27:16.336Z,-4.14
2022-12-13T23:29:43.697Z,-4.13
2022-12-13T23:32:10.864Z,-4.13
2022-12-13T23:34:37.401Z,-4.11
2022-12-13T23:37:04.136Z,-4.08
2022-12-13T23:39:30.601Z,-4.02
2022-12-13T23:41:57.056Z,-4.14
2022-12-13T23:44:23.674Z,-4.12
2022-12-13T23:46:50.145Z,-4.08
2022-12-13T23:49:16.651Z,-4.09
2022-12-13T23:51:44.193Z,-4.26
2022-12-13T23:54:14.614Z,-4.26
2022-12-13T23:56:41.296Z,-4.18
2022-12-13T23:59:07.782Z,-4.12
